Time;durP1;ratioP1;P1;durP2;ratioP2;P2;SDS_P1;SDS_P2;PMS_P1;PMS_P2;Temp;Humidity;BMP_temperature;BMP_pressure;BME280_temperature;BME280_humidity;BME280_pressure;Samples;Min_cycle;Max_cycle;Signal;HPM_P1;HPM_P2
2023/08/16 00:00:53;;;;;;;9.50;5.80;;;;;;;20.04;81.15;99106.19;5031671;28;20025;-83
2023/08/16 00:03:19;;;;;;;10.63;6.22;;;;;;;20.18;81.15;99131.38;5037933;28;20171;-84
2023/08/16 00:05:44;;;;;;;9.00;6.10;;;;;;;20.15;81.47;99124.66;5031637;28;20057;-84
2023/08/16 00:08:10;;;;;;;10.85;6.10;;;;;;;20.14;80.96;99133.88;5051412;28;20033;-84
2023/08/16 00:10:35;;;;;;;7.50;5.93;;;;;;;20.17;81.40;99135.19;5034731;28;20040;-84
2023/08/16 00:13:01;;;;;;;6.90;5.75;;;;;;;20.00;82.10;99118.75;5030972;28;20036;-84
2023/08/16 00:15:26;;;;;;;7.80;5.70;;;;;;;20.13;81.55;99120.66;5030068;28;20029;-84
2023/08/16 00:17:53;;;;;;;6.32;4.70;;;;;;;19.92;81.63;99114.84;5032499;28;20041;-84
2023/08/16 00:20:26;;;;;;;9.88;5.13;;;;;;;20.03;81.95;99126.25;5032564;28;20056;-84
2023/08/16 00:22:51;;;;;;;7.50;4.95;;;;;;;20.01;81.67;99125.78;5033324;28;20474;-84
2023/08/16 00:25:17;;;;;;;7.22;5.30;;;;;;;19.94;81.79;99122.69;5038534;28;20048;-84
2023/08/16 00:27:42;;;;;;;9.13;4.90;;;;;;;19.87;82.06;99119.56;5032893;28;20044;-84
2023/08/16 00:30:08;;;;;;;8.02;5.45;;;;;;;20.01;81.16;99101.38;4998397;28;20039;-85
2023/08/16 00:32:34;;;;;;;9.25;4.82;;;;;;;20.09;81.16;99115.00;5012346;28;20404;-85
2023/08/16 00:34:59;;;;;;;10.05;6.30;;;;;;;20.05;81.20;99107.81;5014592;28;20113;-84
2023/08/16 00:37:25;;;;;;;10.35;6.07;;;;;;;20.06;81.33;99104.00;5017083;28;20448;-84
2023/08/16 00:39:50;;;;;;;11.27;6.15;;;;;;;19.90;81.70;99091.84;5032791;28;20120;-84
2023/08/16 00:42:15;;;;;;;8.77;6.25;;;;;;;20.05;81.98;99122.16;4998563;28;20060;-84
2023/08/16 00:44:41;;;;;;;9.70;6.25;;;;;;;19.92;82.13;99108.66;5014772;28;20128;-84
2023/08/16 00:47:07;;;;;;;9.73;7.13;;;;;;;20.01;82.14;99126.56;4996377;28;20418;-84
2023/08/16 00:49:32;;;;;;;7.63;6.30;;;;;;;20.06;81.90;99109.41;5030898;28;20438;-84
2023/08/16 00:52:00;;;;;;;13.77;8.00;;;;;;;20.07;81.93;99105.59;5030985;28;20060;-84
2023/08/16 00:54:26;;;;;;;9.55;7.85;;;;;;;20.05;82.22;99108.59;5046599;28;20095;-83
2023/08/16 00:56:52;;;;;;;8.50;7.15;;;;;;;20.15;82.13;99108.41;5014210;28;20026;-84
2023/08/16 00:59:17;;;;;;;13.07;7.65;;;;;;;20.00;82.27;99089.75;5031642;28;20075;-84
2023/08/16 01:01:45;;;;;;;11.57;7.80;;;;;;;20.05;82.53;99108.59;5011399;28;20040;-84
2023/08/16 01:04:10;;;;;;;9.70;7.95;;;;;;;20.02;82.74;99113.84;5027819;28;20048;-84
2023/08/16 01:06:36;;;;;;;16.85;7.88;;;;;;;20.06;82.87;99112.13;5029346;28;20029;-84
2023/08/16 01:09:03;;;;;;;11.88;7.97;;;;;;;19.98;82.76;99112.84;5032257;28;20475;-84
2023/08/16 01:11:35;;;;;;;13.38;7.78;;;;;;;19.90;82.75;99108.94;5029440;28;20096;-84
2023/08/16 01:14:15;;;;;;;12.73;7.13;;;;;;;19.94;82.97;99106.44;5026994;28;20013;-84
2023/08/16 01:16:43;;;;;;;13.15;7.82;;;;;;;19.95;82.75;99110.72;5032153;28;20112;-84
2023/08/16 01:19:18;;;;;;;9.27;7.63;;;;;;;20.03;82.65;99105.41;5032472;28;20075;-84
2023/08/16 01:21:51;;;;;;;12.68;8.27;;;;;;;19.97;82.70;99105.81;5031414;28;20065;-84
2023/08/16 01:24:30;;;;;;;9.32;7.55;;;;;;;19.97;82.93;99112.03;5028136;28;20056;-83
2023/08/16 01:26:56;;;;;;;8.80;7.60;;;;;;;19.99;83.13;99112.53;5030536;28;20128;-84
2023/08/16 01:29:23;;;;;;;11.23;8.10;;;;;;;19.89;83.12;99117.38;5029023;28;20037;-84
2023/08/16 01:31:49;;;;;;;12.93;8.07;;;;;;;19.79;83.65;99088.56;5027901;28;20056;-84
2023/08/16 01:34:14;;;;;;;10.43;7.97;;;;;;;19.58;84.50;99103.63;5029452;28;20034;-84
2023/08/16 01:36:40;;;;;;;10.48;7.53;;;;;;;19.80;83.78;99113.75;4997110;28;20041;-84
2023/08/16 01:39:05;;;;;;;11.00;7.95;;;;;;;19.91;83.23;99098.91;5028718;28;20086;-84
2023/08/16 01:41:38;;;;;;;13.95;7.75;;;;;;;19.96;83.29;99101.50;5026807;28;20037;-84
2023/08/16 01:44:06;;;;;;;10.90;7.65;;;;;;;20.00;83.03;99106.03;5028231;28;20033;-83
2023/08/16 01:46:33;;;;;;;12.65;7.72;;;;;;;19.85;83.78;99113.66;5028686;28;20120;-83
2023/08/16 01:49:00;;;;;;;8.27;6.97;;;;;;;19.91;83.73;99109.72;5010727;28;20089;-83
2023/08/16 01:51:25;;;;;;;8.73;7.15;;;;;;;20.00;83.55;99108.72;5029419;28;20037;-83
2023/08/16 01:53:54;;;;;;;10.63;8.43;;;;;;;19.69;83.88;99094.19;5024413;28;20037;-84
2023/08/16 01:56:21;;;;;;;7.78;6.75;;;;;;;19.72;84.38;99106.34;5031935;28;20409;-84
2023/08/16 01:58:47;;;;;;;10.93;9.63;;;;;;;19.44;85.61;99091.97;5029040;28;20354;-84
2023/08/16 02:01:13;;;;;;;14.40;9.20;;;;;;;19.56;85.16;99100.41;5028371;28;20028;-84
2023/08/16 02:03:38;;;;;;;8.75;6.75;;;;;;;19.68;84.98;99092.59;5028308;28;20071;-84
2023/08/16 02:06:04;;;;;;;9.48;7.13;;;;;;;19.57;85.04;99090.41;5002914;28;20057;-84
2023/08/16 02:08:29;;;;;;;8.15;6.43;;;;;;;19.63;84.92;99100.81;5013615;28;20163;-84
2023/08/16 02:10:55;;;;;;;7.97;6.75;;;;;;;19.79;84.51;99115.66;5045070;28;20041;-84
2023/08/16 02:13:21;;;;;;;10.88;7.93;;;;;;;19.81;84.23;99115.38;5026388;28;20025;-84
2023/08/16 02:15:46;;;;;;;12.32;7.85;;;;;;;19.57;85.03;99125.59;5027553;28;20082;-84
2023/08/16 02:18:12;;;;;;;11.73;7.70;;;;;;;19.67;84.86;99123.50;5009526;28;20163;-84
2023/08/16 02:20:38;;;;;;;11.80;8.63;;;;;;;19.37;86.92;99110.53;5029138;28;20072;-83
2023/08/16 02:23:05;;;;;;;11.90;6.78;;;;;;;19.76;85.18;99120.88;5028699;28;20428;-84
2023/08/16 02:25:30;;;;;;;8.13;6.43;;;;;;;19.95;84.12;99126.97;5023114;28;20512;-84
2023/08/16 02:27:55;;;;;;;9.73;6.80;;;;;;;19.80;84.67;99114.56;5011782;28;20037;-84
2023/08/16 02:30:21;;;;;;;8.30;6.13;;;;;;;19.83;84.39;99107.75;5011473;28;20037;-84
2023/08/16 02:32:46;;;;;;;7.85;6.78;;;;;;;19.78;84.51;99105.94;5004971;28;20034;-84
2023/08/16 02:35:11;;;;;;;8.38;6.30;;;;;;;19.97;83.97;99122.06;4993574;28;20108;-84
2023/08/16 02:37:38;;;;;;;7.57;5.90;;;;;;;19.86;84.60;99131.50;5007281;28;20120;-84
2023/08/16 02:40:04;;;;;;;7.80;6.32;;;;;;;19.69;84.57;99104.22;5011970;28;20473;-84
2023/08/16 02:42:29;;;;;;;11.00;6.82;;;;;;;19.91;84.20;99134.13;4994013;28;20037;-85
2023/08/16 02:44:54;;;;;;;8.48;7.03;;;;;;;19.66;85.41;99131.94;5027245;28;20104;-84
2023/08/16 02:47:20;;;;;;;8.10;6.50;;;;;;;19.90;84.51;99136.03;5029294;28;20060;-85
2023/08/16 02:49:45;;;;;;;8.65;6.25;;;;;;;19.69;84.55;99115.06;5010868;28;20056;-84
2023/08/16 02:52:12;;;;;;;7.43;6.43;;;;;;;19.77;85.10;99120.56;5031358;28;20033;-84
2023/08/16 02:54:38;;;;;;;8.13;6.20;;;;;;;19.86;84.38;99126.09;4995652;28;20032;-84
2023/08/16 02:57:03;;;;;;;9.98;6.38;;;;;;;19.73;84.85;99121.47;5028992;28;20045;-84
2023/08/16 02:59:42;;;;;;;7.68;5.70;;;;;;;19.81;84.67;99112.66;5046018;28;20029;-84
2023/08/16 03:02:07;;;;;;;10.32;6.63;;;;;;;19.77;84.67;99106.22;5028519;28;20056;-84
2023/08/16 03:04:39;;;;;;;9.23;7.25;;;;;;;19.80;84.56;99121.88;5039961;28;20148;-84
2023/08/16 03:07:05;;;;;;;8.68;6.65;;;;;;;19.85;85.09;99122.59;5028467;28;20359;-84
2023/08/16 03:09:30;;;;;;;11.35;7.03;;;;;;;19.84;85.08;99133.72;5026910;28;20553;-84
2023/08/16 03:11:56;;;;;;;8.13;7.00;;;;;;;19.94;84.52;99125.41;5029603;28;20128;-84
2023/08/16 03:14:21;;;;;;;12.55;7.72;;;;;;;19.46;87.06;99137.72;5027244;28;20165;-85
2023/08/16 03:16:46;;;;;;;11.55;8.55;;;;;;;19.58;86.03;99140.72;5028129;28;20067;-84
2023/08/16 03:19:12;;;;;;;14.85;10.25;;;;;;;19.08;88.15;99124.28;5031595;28;20045;-84
2023/08/16 03:21:37;;;;;;;8.98;7.28;;;;;;;19.59;86.27;99137.75;5032469;28;20485;-84
2023/08/16 03:24:03;;;;;;;18.67;12.70;;;;;;;19.19;88.39;99146.56;5029129;28;20171;-84
2023/08/16 03:26:28;;;;;;;8.65;6.80;;;;;;;19.26;88.64;99155.88;5024568;28;20029;-84
2023/08/16 03:28:54;;;;;;;8.95;6.78;;;;;;;19.53;86.49;99138.91;5029877;28;20082;-84
2023/08/16 03:31:19;;;;;;;9.50;6.97;;;;;;;19.68;85.92;99154.09;5028342;28;20037;-84
2023/08/16 03:33:44;;;;;;;7.88;7.07;;;;;;;19.59;85.76;99140.44;5028991;28;20499;-84
2023/08/16 03:36:10;;;;;;;11.63;9.07;;;;;;;19.21;88.24;99147.88;5026344;28;20037;-84
2023/08/16 03:38:35;;;;;;;15.02;11.30;;;;;;;18.96;90.33;99155.63;5022235;28;20038;-83
2023/08/16 03:41:01;;;;;;;8.48;7.28;;;;;;;19.42;87.26;99164.56;5014820;28;20038;-84
2023/08/16 03:43:28;;;;;;;30.50;13.80;;;;;;;18.86;91.35;99161.97;5026654;28;20058;-84
2023/08/16 03:45:54;;;;;;;69.18;15.07;;;;;;;18.56;94.16;99168.66;5025084;28;20041;-84
2023/08/16 03:48:20;;;;;;;39.88;14.52;;;;;;;18.35;95.29;99161.88;5033293;28;20044;-84
2023/08/16 03:50:45;;;;;;;21.65;11.55;;;;;;;18.21;95.62;99152.09;5030662;28;20116;-84
2023/08/16 03:53:11;;;;;;;51.55;14.02;;;;;;;18.13;96.64;99171.66;5011773;28;20473;-83
2023/08/16 03:55:37;;;;;;;32.50;13.73;;;;;;;17.94;97.72;99169.72;5019541;28;21805;-84
2023/08/16 03:58:02;;;;;;;71.43;15.18;;;;;;;17.82;98.37;99174.69;5026135;28;20057;-84
2023/08/16 04:00:27;;;;;;;16.67;11.32;;;;;;;17.90;98.14;99168.69;5024601;28;20048;-84
2023/08/16 04:02:53;;;;;;;39.25;14.98;;;;;;;17.96;97.37;99166.72;5027668;28;20087;-84
2023/08/16 04:05:21;;;;;;;53.33;15.00;;;;;;;17.81;98.11;99167.69;5043217;28;20076;-83
2023/08/16 04:07:46;;;;;;;15.23;10.82;;;;;;;17.93;98.33;99189.69;5026122;28;20370;-84
2023/08/16 04:10:12;;;;;;;31.25;12.85;;;;;;;18.00;97.81;99181.25;5025620;28;20036;-84
2023/08/16 04:12:37;;;;;;;47.20;14.32;;;;;;;17.75;98.22;99174.25;5024448;28;20041;-83
2023/08/16 04:15:03;;;;;;;80.05;13.88;;;;;;;17.74;98.45;99190.72;5013088;28;20091;-84
2023/08/16 04:17:29;;;;;;;12.45;9.05;;;;;;;17.59;99.61;99169.28;5029582;28;20028;-83
2023/08/16 04:19:54;;;;;;;88.63;15.35;;;;;;;17.27;99.49;99182.53;5011617;28;20037;-84
2023/08/16 04:22:20;;;;;;;28.10;10.63;;;;;;;17.22;100.00;99196.88;5013765;28;20037;-84
2023/08/16 04:24:46;;;;;;;47.85;11.07;;;;;;;17.61;99.72;99173.31;5016081;28;20037;-84
2023/08/16 04:27:11;;;;;;;44.08;10.90;;;;;;;17.57;99.60;99187.66;5034136;28;20026;-84
2023/08/16 04:29:36;;;;;;;10.95;7.97;;;;;;;17.67;99.46;99192.97;5031613;28;20060;-84
2023/08/16 04:32:02;;;;;;;12.07;8.48;;;;;;;17.72;99.32;99196.41;5028190;28;20021;-84
2023/08/16 04:34:28;;;;;;;11.18;7.95;;;;;;;17.78;97.85;99178.25;5030924;28;20030;-84
2023/08/16 04:36:53;;;;;;;37.92;9.30;;;;;;;17.86;98.49;99185.75;4995809;28;20032;-84
2023/08/16 04:39:19;;;;;;;7.90;6.10;;;;;;;18.07;97.20;99189.00;5030945;28;20037;-84
2023/08/16 04:41:44;;;;;;;10.82;6.47;;;;;;;18.21;95.97;99195.31;5014433;28;20038;-85
2023/08/16 04:44:10;;;;;;;22.42;8.10;;;;;;;18.08;96.68;99190.63;5031108;28;20017;-85
2023/08/16 04:46:35;;;;;;;14.15;6.47;;;;;;;18.04;97.62;99203.09;5027511;28;20045;-84
2023/08/16 04:49:00;;;;;;;21.98;9.45;;;;;;;17.84;97.51;99198.72;5043365;28;20481;-83
2023/08/16 04:51:26;;;;;;;21.23;9.18;;;;;;;17.92;97.60;99188.09;5043382;28;20491;-84
2023/08/16 04:53:52;;;;;;;48.08;9.70;;;;;;;17.90;97.70;99192.97;5012180;28;20021;-82
2023/08/16 04:56:17;;;;;;;10.85;7.07;;;;;;;17.91;98.13;99188.38;5028950;28;20033;-83
2023/08/16 04:58:43;;;;;;;34.83;10.55;;;;;;;17.58;99.17;99186.59;5027711;28;20117;-84
2023/08/16 05:01:09;;;;;;;16.30;9.48;;;;;;;17.74;99.63;99207.72;5028760;28;20151;-84
2023/08/16 05:03:34;;;;;;;17.85;8.68;;;;;;;17.78;98.56;99202.56;5012513;28;20038;-83
2023/08/16 05:06:02;;;;;;;23.20;8.82;;;;;;;17.86;98.55;99216.25;5032199;28;20036;-84
2023/08/16 05:08:28;;;;;;;17.70;9.05;;;;;;;17.69;98.20;99205.06;5027688;28;20470;-84
2023/08/16 05:10:53;;;;;;;28.92;9.20;;;;;;;17.85;98.27;99224.63;5011423;28;20029;-84
2023/08/16 05:13:19;;;;;;;24.10;10.48;;;;;;;17.87;98.01;99211.66;5009008;28;20029;-84
2023/08/16 05:15:45;;;;;;;11.27;7.43;;;;;;;17.95;97.56;99225.31;5011521;28;20129;-83
2023/08/16 05:18:11;;;;;;;29.50;11.57;;;;;;;17.82;97.86;99214.41;5026683;28;20041;-83
2023/08/16 05:20:37;;;;;;;12.02;7.93;;;;;;;17.43;97.60;99148.94;5028286;28;20040;-83
2023/08/16 05:23:03;;;;;;;28.73;10.65;;;;;;;17.78;97.54;99211.47;5029538;28;20037;-83
2023/08/16 05:25:29;;;;;;;22.05;9.30;;;;;;;17.87;97.92;99230.53;5025450;28;20497;-83
2023/08/16 05:27:58;;;;;;;27.45;9.93;;;;;;;17.81;98.46;99221.72;5012000;28;20963;-83
2023/08/16 05:30:26;;;;;;;23.13;10.45;;;;;;;17.88;97.96;99227.56;4998237;28;20080;-83
2023/08/16 05:32:56;;;;;;;16.35;10.77;;;;;;;17.92;98.05;99234.00;5037120;28;20025;-84
2023/08/16 05:35:22;;;;;;;44.80;12.98;;;;;;;17.86;98.31;99240.56;5031581;28;20039;-83
2023/08/16 05:37:48;;;;;;;22.60;11.93;;;;;;;17.81;98.79;99229.00;5031098;28;20092;-83
2023/08/16 05:40:14;;;;;;;14.95;10.20;;;;;;;18.02;97.94;99249.28;5014145;28;20452;-83
2023/08/16 05:42:39;;;;;;;16.85;10.30;;;;;;;17.92;98.11;99227.81;5024830;28;20120;-83
2023/08/16 05:45:05;;;;;;;14.50;10.00;;;;;;;18.05;97.87;99234.41;5030967;28;20495;-84
2023/08/16 05:47:31;;;;;;;10.82;6.90;;;;;;;18.07;97.72;99214.13;5014395;28;20038;-83
2023/08/16 05:50:00;;;;;;;11.32;8.68;;;;;;;18.32;97.28;99234.63;5047557;28;20039;-83
2023/08/16 05:52:25;;;;;;;27.45;11.57;;;;;;;18.14;97.15;99232.69;5031741;28;20043;-83
2023/08/16 05:54:51;;;;;;;14.05;9.75;;;;;;;18.03;98.09;99228.50;5029750;28;20041;-84
2023/08/16 05:57:16;;;;;;;8.43;6.35;;;;;;;18.36;96.27;99228.38;5011215;28;20037;-83
2023/08/16 05:59:42;;;;;;;8.57;6.20;;;;;;;19.07;90.53;99236.31;5033072;28;20025;-84
2023/08/16 06:02:07;;;;;;;6.22;5.45;;;;;;;19.18;90.40;99235.06;5027755;28;20365;-83
2023/08/16 06:04:33;;;;;;;5.90;5.30;;;;;;;19.57;88.21;99223.88;5030726;28;20064;-84
2023/08/16 06:06:59;;;;;;;8.23;5.80;;;;;;;19.59;87.95;99237.94;5027963;28;20441;-84
2023/08/16 06:09:24;;;;;;;6.45;5.50;;;;;;;19.49;89.05;99240.00;5031464;28;20090;-83
2023/08/16 06:11:50;;;;;;;13.77;8.75;;;;;;;18.82;93.46;99241.28;5031365;28;20025;-83
2023/08/16 06:14:15;;;;;;;14.43;9.80;;;;;;;18.42;95.56;99238.00;5020959;28;20129;-83
2023/08/16 06:16:40;;;;;;;7.30;5.95;;;;;;;18.74;94.14;99231.94;5028293;28;20079;-83
2023/08/16 06:19:06;;;;;;;19.17;9.15;;;;;;;18.64;95.64;99232.88;5007839;28;20505;-83
2023/08/16 06:21:31;;;;;;;9.57;8.10;;;;;;;18.83;94.82;99238.28;5025610;28;20112;-83
2023/08/16 06:23:57;;;;;;;10.60;8.45;;;;;;;18.63;96.02;99227.78;5018683;28;20065;-83
2023/08/16 06:26:23;;;;;;;7.03;6.32;;;;;;;18.83;96.38;99243.69;5024988;28;20111;-84
2023/08/16 06:28:48;;;;;;;7.88;6.88;;;;;;;19.25;91.43;99243.59;5023703;28;20036;-84
2023/08/16 06:31:15;;;;;;;9.50;6.63;;;;;;;19.34;91.51;99244.59;5024801;28;20037;-83
2023/08/16 06:33:41;;;;;;;7.18;6.07;;;;;;;19.41;90.18;99238.78;5025976;28;20040;-83
2023/08/16 06:36:06;;;;;;;8.07;6.38;;;;;;;19.45;91.28;99245.22;5005963;28;20386;-83
2023/08/16 06:38:32;;;;;;;8.70;7.63;;;;;;;19.57;92.36;99250.94;5016078;28;20053;-83
2023/08/16 06:40:57;;;;;;;12.60;9.05;;;;;;;19.05;95.03;99246.63;5023073;28;20057;-83
2023/08/16 06:43:23;;;;;;;7.30;6.60;;;;;;;19.44;91.05;99238.97;5027863;28;20048;-83
2023/08/16 06:45:49;;;;;;;10.18;8.95;;;;;;;18.96;93.79;99237.56;5023886;28;20584;-83
2023/08/16 06:48:14;;;;;;;10.50;9.40;;;;;;;18.74;95.16;99250.84;5038147;28;20092;-84
2023/08/16 06:50:40;;;;;;;10.73;9.73;;;;;;;18.77;95.74;99250.28;5042039;28;20037;-84
2023/08/16 06:53:05;;;;;;;10.98;8.45;;;;;;;18.81;94.98;99253.19;5042581;28;20025;-84
2023/08/16 06:55:30;;;;;;;9.70;8.10;;;;;;;18.91;94.62;99245.78;5010486;28;20453;-84
2023/08/16 06:57:56;;;;;;;9.10;7.03;;;;;;;19.60;89.75;99257.69;4993830;28;20072;-84
2023/08/16 07:00:21;;;;;;;11.00;8.45;;;;;;;18.95;92.43;99264.91;5010873;28;20647;-83
2023/08/16 07:02:47;;;;;;;10.68;9.20;;;;;;;18.79;93.79;99267.03;5025544;28;20039;-84
2023/08/16 07:05:13;;;;;;;10.93;9.82;;;;;;;18.96;93.07;99278.13;5011445;28;20037;-83
2023/08/16 07:07:39;;;;;;;11.80;8.32;;;;;;;19.06;93.73;99278.00;5026882;28;20041;-84
2023/08/16 07:10:05;;;;;;;6.78;6.07;;;;;;;19.52;90.68;99280.03;5022442;28;20481;-84
2023/08/16 07:12:31;;;;;;;10.52;9.43;;;;;;;19.23;92.46;99262.06;5016195;28;20471;-83
2023/08/16 07:14:56;;;;;;;10.05;9.10;;;;;;;18.74;94.79;99256.25;5027910;28;20025;-84
2023/08/16 07:17:22;;;;;;;11.90;8.48;;;;;;;18.69;94.74;99250.94;4989105;28;20124;-83
2023/08/16 07:19:48;;;;;;;13.18;11.45;;;;;;;18.52;95.15;99253.34;5018453;28;20496;-83
2023/08/16 07:22:14;;;;;;;12.05;10.88;;;;;;;18.87;94.64;99250.13;4987189;28;20029;-81
2023/08/16 07:24:39;;;;;;;11.13;8.10;;;;;;;19.15;94.13;99278.97;5016407;28;20034;-82
2023/08/16 07:27:05;;;;;;;8.88;7.97;;;;;;;19.92;88.88;99280.13;5013352;28;20095;-83
2023/08/16 07:29:30;;;;;;;15.68;12.10;;;;;;;19.92;87.91;99274.69;5016898;28;20029;-83
2023/08/16 07:31:56;;;;;;;11.85;10.60;;;;;;;20.03;87.67;99288.88;5011065;28;20028;-83
2023/08/16 07:34:21;;;;;;;14.35;10.40;;;;;;;19.72;88.85;99285.94;5017885;28;20032;-83
2023/08/16 07:36:47;;;;;;;15.63;13.13;;;;;;;19.30;90.19;99286.03;5016862;28;20067;-82
2023/08/16 07:39:12;;;;;;;12.45;10.75;;;;;;;19.46;90.14;99284.75;5017338;28;20026;-83
2023/08/16 07:41:37;;;;;;;12.68;10.63;;;;;;;19.69;89.24;99286.50;5018689;28;20025;-82
2023/08/16 07:44:03;;;;;;;16.42;10.75;;;;;;;19.44;89.08;99255.22;5012911;28;20049;-82
2023/08/16 07:46:28;;;;;;;17.13;15.30;;;;;;;18.76;91.88;99275.75;5009957;28;20160;-83
2023/08/16 07:48:54;;;;;;;19.88;14.73;;;;;;;18.89;93.43;99274.19;5015101;28;20796;-82
2023/08/16 07:51:20;;;;;;;18.52;16.17;;;;;;;18.96;93.15;99269.25;5017965;28;20056;-83
2023/08/16 07:53:46;;;;;;;24.58;19.00;;;;;;;18.63;92.77;99265.63;5018348;28;20108;-82
2023/08/16 07:56:11;;;;;;;23.13;17.77;;;;;;;19.01;92.82;99280.78;5029055;28;20045;-83
2023/08/16 07:58:37;;;;;;;23.15;17.63;;;;;;;19.03;93.00;99285.88;5008400;28;20040;-83
2023/08/16 08:01:02;;;;;;;15.02;11.98;;;;;;;19.74;90.80;99283.72;5026456;28;20029;-83
2023/08/16 08:03:27;;;;;;;15.02;11.70;;;;;;;20.38;86.37;99292.88;5028388;28;20063;-84
2023/08/16 08:06:00;;;;;;;12.88;10.57;;;;;;;20.14;86.87;99285.69;5023806;28;20076;-82
2023/08/16 08:08:25;;;;;;;15.40;12.40;;;;;;;20.50;85.16;99291.25;5021598;28;20060;-83
2023/08/16 08:10:50;;;;;;;11.93;9.95;;;;;;;20.48;85.16;99296.16;5000001;28;20068;-83
2023/08/16 08:13:16;;;;;;;14.52;11.23;;;;;;;20.71;83.90;99287.00;5023897;28;20025;-83
2023/08/16 08:15:44;;;;;;;21.20;13.52;;;;;;;20.32;87.38;99299.47;5021708;28;20047;-83
2023/08/16 08:18:09;;;;;;;17.77;12.95;;;;;;;20.37;87.24;99302.09;5012603;28;20063;-82
2023/08/16 08:20:36;;;;;;;11.38;9.95;;;;;;;20.47;86.21;99283.69;4997781;28;20052;-83
2023/08/16 08:23:02;;;;;;;14.75;12.55;;;;;;;20.47;86.34;99285.59;5028271;28;20065;-84
2023/08/16 08:25:28;;;;;;;18.67;12.80;;;;;;;20.12;87.20;99295.22;5028216;28;20993;-83
2023/08/16 08:27:55;;;;;;;19.80;12.70;;;;;;;19.80;89.13;99260.84;5028801;28;20101;-83
2023/08/16 08:30:21;;;;;;;19.02;13.88;;;;;;;19.97;89.31;99271.91;5029662;28;20044;-83
2023/08/16 08:32:46;;;;;;;20.50;14.00;;;;;;;19.54;91.02;99267.00;5026727;28;20037;-83
2023/08/16 08:35:12;;;;;;;17.88;13.68;;;;;;;19.74;89.88;99285.63;5011210;28;20029;-82
2023/08/16 08:37:37;;;;;;;20.90;12.77;;;;;;;19.87;91.44;99277.53;5026589;28;20048;-82
2023/08/16 08:40:05;;;;;;;15.40;13.43;;;;;;;19.76;90.64;99278.00;5030283;28;20029;-82
2023/08/16 08:42:31;;;;;;;22.02;11.65;;;;;;;20.29;89.27;99298.16;5022426;28;20540;-82
2023/08/16 08:44:59;;;;;;;18.42;13.02;;;;;;;20.47;88.68;99294.56;5023250;28;20121;-82
2023/08/16 08:47:24;;;;;;;16.23;12.80;;;;;;;20.48;88.52;99298.88;5024348;28;21712;-82
2023/08/16 08:49:51;;;;;;;14.68;11.77;;;;;;;20.61;87.74;99292.66;5015936;28;20026;-82
2023/08/16 08:52:18;;;;;;;9.88;8.88;;;;;;;20.76;86.78;99284.19;5030450;28;20032;-82
2023/08/16 08:54:43;;;;;;;13.02;9.57;;;;;;;21.11;86.29;99285.34;5025074;28;20014;-82
2023/08/16 08:57:10;;;;;;;13.27;10.57;;;;;;;21.04;87.50;99281.44;5025400;28;20370;-82
2023/08/16 08:59:38;;;;;;;9.68;8.68;;;;;;;21.37;85.69;99291.78;5033167;28;20029;-81
2023/08/16 09:02:05;;;;;;;12.63;11.43;;;;;;;21.12;85.42;99278.78;5027183;28;20059;-81
2023/08/16 09:04:33;;;;;;;13.60;11.10;;;;;;;21.13;86.05;99282.31;5014666;28;20029;-81
2023/08/16 09:07:04;;;;;;;14.88;11.25;;;;;;;21.11;86.38;99277.19;5019307;28;20042;-82
2023/08/16 09:09:30;;;;;;;14.20;11.65;;;;;;;20.93;86.47;99284.34;5025456;28;20040;-82
2023/08/16 09:11:55;;;;;;;9.00;8.13;;;;;;;21.47;85.12;99258.16;5029408;28;20732;-82
2023/08/16 09:14:21;;;;;;;11.27;9.50;;;;;;;21.46;85.78;99264.69;5043207;28;20029;-82
2023/08/16 09:16:46;;;;;;;12.52;9.02;;;;;;;21.65;85.85;99289.72;5027324;28;20029;-84
2023/08/16 09:19:13;;;;;;;9.60;8.52;;;;;;;21.69;84.39;99282.56;4988162;28;20176;-83
2023/08/16 09:21:41;;;;;;;10.77;9.60;;;;;;;21.81;84.09;99293.69;5024328;28;20503;-82
2023/08/16 09:24:06;;;;;;;10.43;9.13;;;;;;;21.65;83.46;99270.72;5008301;28;20172;-82
2023/08/16 09:26:32;;;;;;;8.23;7.20;;;;;;;21.87;83.27;99281.59;5026613;28;20117;-82
2023/08/16 09:28:58;;;;;;;10.98;9.30;;;;;;;21.87;83.02;99281.59;5010908;28;20089;-83
2023/08/16 09:31:24;;;;;;;8.50;7.55;;;;;;;22.08;82.74;99290.81;5030929;28;20057;-83
2023/08/16 09:33:58;;;;;;;12.07;8.40;;;;;;;22.32;82.81;99291.22;5026124;28;20531;-83
2023/08/16 09:36:28;;;;;;;10.98;8.73;;;;;;;22.34;83.56;99288.22;5038299;28;20037;-82
2023/08/16 09:38:59;;;;;;;11.23;8.63;;;;;;;22.36;83.57;99277.81;5010888;28;20030;-82
2023/08/16 09:41:24;;;;;;;8.70;7.80;;;;;;;22.59;81.40;99282.06;5037577;28;20105;-82
2023/08/16 09:43:50;;;;;;;8.88;7.95;;;;;;;22.39;81.95;99285.34;5024343;28;20029;-83
2023/08/16 09:46:20;;;;;;;10.25;8.70;;;;;;;21.68;82.29;99291.84;5022659;28;20044;-83
2023/08/16 09:48:46;;;;;;;10.35;8.30;;;;;;;21.92;83.69;99281.47;5036549;28;20090;-82
2023/08/16 09:51:11;;;;;;;11.15;7.80;;;;;;;22.29;82.21;99289.16;4996828;28;20025;-83
2023/08/16 09:53:46;;;;;;;9.05;7.93;;;;;;;22.12;82.38;99277.41;5050336;28;20033;-83
2023/08/16 09:56:14;;;;;;;9.02;8.10;;;;;;;22.36;82.83;99270.47;5031045;28;20478;-83
2023/08/16 09:58:39;;;;;;;9.98;8.63;;;;;;;22.49;82.85;99274.19;5013016;28;20052;-83
2023/08/16 10:01:05;;;;;;;8.55;6.90;;;;;;;23.11;79.32;99258.44;5044692;28;20495;-83
2023/08/16 10:03:31;;;;;;;7.40;6.63;;;;;;;23.50;78.06;99268.41;5022706;28;20087;-83
2023/08/16 10:05:57;;;;;;;12.48;8.77;;;;;;;23.17;79.91;99272.72;5052750;28;20033;-83
2023/08/16 10:08:23;;;;;;;9.23;8.18;;;;;;;22.69;80.59;99257.31;5012793;28;20044;-82
2023/08/16 10:10:49;;;;;;;11.00;8.57;;;;;;;22.63;81.50;99264.00;5029839;28;20083;-83
2023/08/16 10:13:15;;;;;;;10.10;8.23;;;;;;;22.48;80.00;99264.41;5030668;28;20045;-82
2023/08/16 10:15:43;;;;;;;7.50;6.75;;;;;;;22.59;80.15;99257.59;5031185;28;20072;-83
2023/08/16 10:18:12;;;;;;;8.38;7.05;;;;;;;23.29;80.52;99257.31;5030865;28;20040;-82
2023/08/16 10:20:41;;;;;;;7.82;7.07;;;;;;;23.64;77.81;99233.56;5040684;28;20029;-82
2023/08/16 10:23:10;;;;;;;11.07;7.75;;;;;;;22.99;78.50;99259.09;5034321;28;20084;-82
2023/08/16 10:25:47;;;;;;;8.93;7.47;;;;;;;23.19;78.75;99244.03;5029384;28;20041;-82
2023/08/16 10:28:15;;;;;;;8.07;6.15;;;;;;;23.82;78.16;99244.13;5026185;28;20064;-83
2023/08/16 10:30:44;;;;;;;8.93;7.63;;;;;;;23.51;77.25;99248.19;5041258;28;20031;-83
2023/08/16 10:33:18;;;;;;;6.82;6.13;;;;;;;23.80;78.41;99232.72;5041479;28;20052;-83
2023/08/16 10:35:47;;;;;;;6.32;5.72;;;;;;;24.47;75.91;99240.16;5037302;28;20021;-83
2023/08/16 10:38:12;;;;;;;8.75;6.35;;;;;;;24.64;74.80;99245.50;5031360;28;20041;-83
2023/08/16 10:40:37;;;;;;;6.97;5.85;;;;;;;24.71;73.96;99232.13;5029963;28;20053;-83
2023/08/16 10:43:07;;;;;;;7.78;6.97;;;;;;;24.70;75.33;99230.56;5035481;28;20064;-83
2023/08/16 10:45:35;;;;;;;8.35;6.63;;;;;;;24.36;75.78;99225.28;5045515;28;20550;-83
2023/08/16 10:48:09;;;;;;;10.68;7.57;;;;;;;23.97;74.65;99231.06;5032880;28;20021;-83
2023/08/16 10:50:34;;;;;;;8.82;7.90;;;;;;;24.03;75.89;99213.38;5014101;28;20048;-82
2023/08/16 10:53:00;;;;;;;8.77;7.10;;;;;;;24.28;76.49;99229.69;5031482;28;20025;-82
2023/08/16 10:55:26;;;;;;;7.60;6.68;;;;;;;24.80;73.31;99219.25;5030166;28;20044;-82
2023/08/16 10:57:55;;;;;;;7.13;6.43;;;;;;;25.11;73.96;99232.50;5012489;28;20033;-83
2023/08/16 11:00:30;;;;;;;7.22;6.47;;;;;;;25.26;73.30;99232.69;5034364;28;20120;-83
2023/08/16 11:02:56;;;;;;;7.05;6.30;;;;;;;24.71;72.44;99218.47;5031448;28;20154;-82
2023/08/16 11:05:22;;;;;;;7.88;6.15;;;;;;;24.94;73.42;99236.19;5032835;28;20033;-83
2023/08/16 11:07:48;;;;;;;6.68;5.25;;;;;;;25.01;71.77;99233.69;5030989;28;20033;-83
2023/08/16 11:10:13;;;;;;;7.57;6.90;;;;;;;24.37;73.32;99229.63;5027680;28;20108;-83
2023/08/16 11:12:39;;;;;;;8.27;6.57;;;;;;;24.74;72.93;99222.50;5030622;28;20048;-83
2023/08/16 11:15:05;;;;;;;8.55;7.65;;;;;;;24.39;72.58;99216.44;5033664;28;20024;-83
2023/08/16 11:17:32;;;;;;;9.07;7.18;;;;;;;24.32;74.71;99221.63;5030084;28;20029;-83
2023/08/16 11:20:00;;;;;;;7.80;7.00;;;;;;;24.33;73.55;99237.66;5031146;28;20416;-83
2023/08/16 11:22:25;;;;;;;8.50;7.03;;;;;;;24.52;74.85;99234.50;5033585;28;20667;-83